sensor_id;sensor_type;location;lat;lon;timestamp;pressure;altitude;pressure_sealevel;temperature;humidity
15750;BME280;7976;52.526;13.326;2023-07-29T00:02:01;100372.22;;;19.06;100.00
15750;BME280;7976;52.526;13.326;2023-07-29T00:04:28;100368.03;;;19.03;100.00
15750;BME280;7976;52.526;13.326;2023-07-29T00:06:55;100373.44;;;19.02;100.00
15750;BME280;7976;52.526;13.326;2023-07-29T00:09:22;100362.84;;;19.02;100.00
15750;BME280;7976;52.526;13.326;2023-07-29T00:11:48;100363.78;;;19.01;100.00
15750;BME280;7976;52.526;13.326;2023-07-29T00:14:15;100370.19;;;18.98;100.00
15750;BME280;7976;52.526;13.326;2023-07-29T00:16:42;100370.44;;;18.95;100.00
15750;BME280;7976;52.526;13.326;2023-07-29T00:19:10;100366.81;;;18.96;100.00
15750;BME280;7976;52.526;13.326;2023-07-29T00:21:37;100373.91;;;18.96;100.00
15750;BME280;7976;52.526;13.326;2023-07-29T00:24:04;100371.50;;;18.93;100.00
15750;BME280;7976;52.526;13.326;2023-07-29T00:26:31;100368.97;;;18.91;100.00
15750;BME280;7976;52.526;13.326;2023-07-29T00:28:58;100362.00;;;18.90;100.00
15750;BME280;7976;52.526;13.326;2023-07-29T00:31:25;100364.75;;;18.89;100.00
15750;BME280;7976;52.526;13.326;2023-07-29T00:33:52;100361.38;;;18.87;100.00
15750;BME280;7976;52.526;13.326;2023-07-29T00:36:21;100358.84;;;18.85;100.00
15750;BME280;7976;52.526;13.326;2023-07-29T00:38:47;100366.94;;;18.84;100.00
15750;BME280;7976;52.526;13.326;2023-07-29T00:41:15;100371.38;;;18.83;100.00
15750;BME280;7976;52.526;13.326;2023-07-29T00:43:42;100365.34;;;18.81;100.00
15750;BME280;7976;52.526;13.326;2023-07-29T00:46:10;100364.41;;;18.82;100.00
15750;BME280;7976;52.526;13.326;2023-07-29T00:48:38;100363.41;;;18.83;100.00
15750;BME280;7976;52.526;13.326;2023-07-29T00:51:05;100359.09;;;18.82;100.00
15750;BME280;7976;52.526;13.326;2023-07-29T00:53:33;100363.53;;;18.82;100.00
15750;BME280;7976;52.526;13.326;2023-07-29T00:56:00;100360.03;;;18.81;100.00
15750;BME280;7976;52.526;13.326;2023-07-29T00:58:27;100359.31;;;18.79;100.00
15750;BME280;7976;52.526;13.326;2023-07-29T01:00:55;100356.78;;;18.77;100.00
15750;BME280;7976;52.526;13.326;2023-07-29T01:03:22;100359.53;;;18.76;100.00
15750;BME280;7976;52.526;13.326;2023-07-29T01:06:04;100350.66;;;18.77;100.00
15750;BME280;7976;52.526;13.326;2023-07-29T01:08:46;100344.50;;;18.77;100.00
15750;BME280;7976;52.526;13.326;2023-07-29T01:11:33;100343.75;;;18.74;100.00
15750;BME280;7976;52.526;13.326;2023-07-29T01:14:05;100338.56;;;18.73;100.00
15750;BME280;7976;52.526;13.326;2023-07-29T01:16:40;100334.34;;;18.70;100.00
15750;BME280;7976;52.526;13.326;2023-07-29T01:19:23;100334.34;;;18.70;100.00
15750;BME280;7976;52.526;13.326;2023-07-29T01:21:55;100332.78;;;18.68;100.00
15750;BME280;7976;52.526;13.326;2023-07-29T01:24:24;100330.97;;;18.68;100.00
15750;BME280;7976;52.526;13.326;2023-07-29T01:26:51;100330.25;;;18.66;100.00
15750;BME280;7976;52.526;13.326;2023-07-29T01:29:18;100323.16;;;18.67;100.00
15750;BME280;7976;52.526;13.326;2023-07-29T01:31:47;100319.78;;;18.65;100.00
15750;BME280;7976;52.526;13.326;2023-07-29T01:34:28;100326.00;;;18.64;100.00
15750;BME280;7976;52.526;13.326;2023-07-29T01:36:59;100319.16;;;18.61;100.00
15750;BME280;7976;52.526;13.326;2023-07-29T01:39:32;100321.06;;;18.59;100.00
15750;BME280;7976;52.526;13.326;2023-07-29T01:42:02;100329.16;;;18.58;100.00
15750;BME280;7976;52.526;13.326;2023-07-29T01:44:29;100338.06;;;18.57;100.00
15750;BME280;7976;52.526;13.326;2023-07-29T01:46:57;100338.28;;;18.54;100.00
15750;BME280;7976;52.526;13.326;2023-07-29T01:49:24;100340.22;;;18.52;100.00
15750;BME280;7976;52.526;13.326;2023-07-29T01:51:51;100345.53;;;18.52;100.00
15750;BME280;7976;52.526;13.326;2023-07-29T01:54:18;100330.69;;;18.49;100.00
15750;BME280;7976;52.526;13.326;2023-07-29T01:56:46;100329.03;;;18.48;100.00
15750;BME280;7976;52.526;13.326;2023-07-29T01:59:13;100335.25;;;18.47;100.00
15750;BME280;7976;52.526;13.326;2023-07-29T02:01:41;100337.09;;;18.47;100.00
15750;BME280;7976;52.526;13.326;2023-07-29T02:04:09;100343.22;;;18.47;100.00
15750;BME280;7976;52.526;13.326;2023-07-29T02:06:36;100336.34;;;18.45;100.00
15750;BME280;7976;52.526;13.326;2023-07-29T02:09:02;100336.13;;;18.48;100.00
15750;BME280;7976;52.526;13.326;2023-07-29T02:11:30;100338.75;;;18.48;100.00
15750;BME280;7976;52.526;13.326;2023-07-29T02:13:58;100337.09;;;18.47;100.00
15750;BME280;7976;52.526;13.326;2023-07-29T02:16:25;100332.59;;;18.47;100.00
15750;BME280;7976;52.526;13.326;2023-07-29T02:18:52;100334.44;;;18.47;100.00
15750;BME280;7976;52.526;13.326;2023-07-29T02:21:19;100321.19;;;18.47;100.00
15750;BME280;7976;52.526;13.326;2023-07-29T02:23:46;100328.28;;;18.46;100.00
15750;BME280;7976;52.526;13.326;2023-07-29T02:26:13;100329.22;;;18.45;100.00
15750;BME280;7976;52.526;13.326;2023-07-29T02:28:40;100331.06;;;18.45;100.00
15750;BME280;7976;52.526;13.326;2023-07-29T02:31:16;100330.31;;;18.43;100.00
15750;BME280;7976;52.526;13.326;2023-07-29T02:33:45;100328.66;;;18.42;100.00
15750;BME280;7976;52.526;13.326;2023-07-29T02:36:13;100331.47;;;18.39;100.00
15750;BME280;7976;52.526;13.326;2023-07-29T02:38:41;100328.13;;;18.37;100.00
15750;BME280;7976;52.526;13.326;2023-07-29T02:41:09;100324.63;;;18.36;100.00
15750;BME280;7976;52.526;13.326;2023-07-29T02:43:38;100328.94;;;18.37;100.00
15750;BME280;7976;52.526;13.326;2023-07-29T02:46:06;100326.28;;;18.37;100.00
15750;BME280;7976;52.526;13.326;2023-07-29T02:48:34;100331.59;;;18.37;100.00
15750;BME280;7976;52.526;13.326;2023-07-29T02:51:01;100324.50;;;18.38;100.00
15750;BME280;7976;52.526;13.326;2023-07-29T02:53:28;100317.50;;;18.37;100.00
15750;BME280;7976;52.526;13.326;2023-07-29T02:55:55;100327.25;;;18.36;100.00
15750;BME280;7976;52.526;13.326;2023-07-29T02:58:22;100316.78;;;18.35;100.00
15750;BME280;7976;52.526;13.326;2023-07-29T03:00:49;100325.66;;;18.34;100.00
15750;BME280;7976;52.526;13.326;2023-07-29T03:03:18;100328.44;;;18.32;100.00
15750;BME280;7976;52.526;13.326;2023-07-29T03:05:46;100334.72;;;18.31;100.00
15750;BME280;7976;52.526;13.326;2023-07-29T03:08:13;100337.47;;;18.30;100.00
15750;BME280;7976;52.526;13.326;2023-07-29T03:10:40;100336.75;;;18.28;100.00
15750;BME280;7976;52.526;13.326;2023-07-29T03:13:07;100337.81;;;18.25;100.00
15750;BME280;7976;52.526;13.326;2023-07-29T03:15:34;100327.56;;;18.21;100.00
15750;BME280;7976;52.526;13.326;2023-07-29T03:18:01;100328.53;;;18.20;100.00
15750;BME280;7976;52.526;13.326;2023-07-29T03:20:28;100324.31;;;18.17;100.00
15750;BME280;7976;52.526;13.326;2023-07-29T03:22:56;100329.59;;;18.17;100.00
15750;BME280;7976;52.526;13.326;2023-07-29T03:25:23;100318.88;;;18.19;100.00
15750;BME280;7976;52.526;13.326;2023-07-29T03:27:50;100321.66;;;18.17;100.00
15750;BME280;7976;52.526;13.326;2023-07-29T03:30:20;100317.22;;;18.18;100.00
15750;BME280;7976;52.526;13.326;2023-07-29T03:32:49;100314.56;;;18.18;100.00
15750;BME280;7976;52.526;13.326;2023-07-29T03:35:16;100319.97;;;18.16;100.00
15750;BME280;7976;52.526;13.326;2023-07-29T03:37:43;100318.19;;;18.17;100.00
15750;BME280;7976;52.526;13.326;2023-07-29T03:40:12;100317.22;;;18.18;100.00
15750;BME280;7976;52.526;13.326;2023-07-29T03:42:39;100322.50;;;18.18;100.00
15750;BME280;7976;52.526;13.326;2023-07-29T03:45:07;100316.22;;;18.19;100.00
15750;BME280;7976;52.526;13.326;2023-07-29T03:47:33;100313.59;;;18.19;100.00
15750;BME280;7976;52.526;13.326;2023-07-29T03:50:02;100317.31;;;18.16;100.00
15750;BME280;7976;52.526;13.326;2023-07-29T03:52:30;100311.16;;;18.16;100.00
15750;BME280;7976;52.526;13.326;2023-07-29T03:54:57;100307.59;;;18.17;100.00
15750;BME280;7976;52.526;13.326;2023-07-29T03:57:25;100312.03;;;18.16;100.00
15750;BME280;7976;52.526;13.326;2023-07-29T03:59:52;100303.97;;;18.18;100.00
15750;BME280;7976;52.526;13.326;2023-07-29T04:02:19;100314.44;;;18.19;100.00
15750;BME280;7976;52.526;13.326;2023-07-29T04:04:46;100305.63;;;18.19;100.00
15750;BME280;7976;52.526;13.326;2023-07-29T04:07:14;100308.16;;;18.20;100.00
15750;BME280;7976;52.526;13.326;2023-07-29T04:09:41;100314.31;;;18.21;100.00
15750;BME280;7976;52.526;13.326;2023-07-29T04:12:09;100315.19;;;18.21;100.00
15750;BME280;7976;52.526;13.326;2023-07-29T04:14:38;100315.06;;;18.23;100.00
15750;BME280;7976;52.526;13.326;2023-07-29T04:17:05;100307.00;;;18.24;100.00
15750;BME280;7976;52.526;13.326;2023-07-29T04:19:32;100304.22;;;18.26;100.00
15750;BME280;7976;52.526;13.326;2023-07-29T04:21:59;100304.09;;;18.27;100.00
15750;BME280;7976;52.526;13.326;2023-07-29T04:24:26;100299.66;;;18.28;100.00
15750;BME280;7976;52.526;13.326;2023-07-29T04:26:53;100301.31;;;18.29;100.00
15750;BME280;7976;52.526;13.326;2023-07-29T04:29:20;100298.56;;;18.30;100.00
15750;BME280;7976;52.526;13.326;2023-07-29T04:31:49;100300.16;;;18.33;100.00
15750;BME280;7976;52.526;13.326;2023-07-29T04:34:17;100304.25;;;18.37;100.00
15750;BME280;7976;52.526;13.326;2023-07-29T04:36:44;100307.53;;;18.40;100.00
15750;BME280;7976;52.526;13.326;2023-07-29T04:39:11;100309.84;;;18.45;100.00
15750;BME280;7976;52.526;13.326;2023-07-29T04:41:38;100312.25;;;18.48;100.00
15750;BME280;7976;52.526;13.326;2023-07-29T04:44:05;100317.19;;;18.52;100.00
15750;BME280;7976;52.526;13.326;2023-07-29T04:46:32;100322.25;;;18.55;100.00
15750;BME280;7976;52.526;13.326;2023-07-29T04:49:01;100319.41;;;18.58;100.00
15750;BME280;7976;52.526;13.326;2023-07-29T04:51:28;100313.00;;;18.61;100.00
15750;BME280;7976;52.526;13.326;2023-07-29T04:53:55;100314.47;;;18.65;100.00
15750;BME280;7976;52.526;13.326;2023-07-29T04:56:22;100306.28;;;18.68;100.00
15750;BME280;7976;52.526;13.326;2023-07-29T04:58:49;100305.06;;;18.72;100.00
15750;BME280;7976;52.526;13.326;2023-07-29T05:01:16;100304.59;;;18.78;100.00
15750;BME280;7976;52.526;13.326;2023-07-29T05:03:44;100307.72;;;18.83;100.00
15750;BME280;7976;52.526;13.326;2023-07-29T05:06:13;100310.00;;;18.88;100.00
15750;BME280;7976;52.526;13.326;2023-07-29T05:08:40;100302.66;;;18.91;100.00
15750;BME280;7976;52.526;13.326;2023-07-29T05:11:07;100312.91;;;18.96;100.00
15750;BME280;7976;52.526;13.326;2023-07-29T05:13:34;100309.31;;;18.97;100.00
15750;BME280;7976;52.526;13.326;2023-07-29T05:16:01;100309.31;;;18.97;100.00
15750;BME280;7976;52.526;13.326;2023-07-29T05:18:28;100303.13;;;18.96;100.00
15750;BME280;7976;52.526;13.326;2023-07-29T05:20:55;100294.94;;;18.99;100.00
15750;BME280;7976;52.526;13.326;2023-07-29T05:23:23;100296.63;;;19.00;100.00
15750;BME280;7976;52.526;13.326;2023-07-29T05:25:51;100295.41;;;19.04;100.00
15750;BME280;7976;52.526;13.326;2023-07-29T05:28:17;100302.06;;;19.10;100.00
15750;BME280;7976;52.526;13.326;2023-07-29T05:30:44;100301.47;;;19.17;100.00
15750;BME280;7976;52.526;13.326;2023-07-29T05:33:11;100310.84;;;19.21;100.00
15750;BME280;7976;52.526;13.326;2023-07-29T05:35:39;100298.19;;;19.25;100.00
15750;BME280;7976;52.526;13.326;2023-07-29T05:38:06;100302.41;;;19.27;100.00
15750;BME280;7976;52.526;13.326;2023-07-29T05:40:35;100312.19;;;19.27;100.00
15750;BME280;7976;52.526;13.326;2023-07-29T05:43:03;100308.66;;;19.26;100.00
15750;BME280;7976;52.526;13.326;2023-07-29T05:45:30;100309.78;;;19.24;100.00
15750;BME280;7976;52.526;13.326;2023-07-29T05:47:57;100305.28;;;19.24;100.00
15750;BME280;7976;52.526;13.326;2023-07-29T05:50:24;100307.94;;;19.24;100.00
15750;BME280;7976;52.526;13.326;2023-07-29T05:52:51;100305.28;;;19.24;100.00
15750;BME280;7976;52.526;13.326;2023-07-29T05:55:17;100304.34;;;19.25;100.00
15750;BME280;7976;52.526;13.326;2023-07-29T05:57:46;100293.47;;;19.28;100.00
15750;BME280;7976;52.526;13.326;2023-07-29T06:00:14;100283.47;;;19.32;100.00
15750;BME280;7976;52.526;13.326;2023-07-29T06:02:40;100284.91;;;19.36;100.00
15750;BME280;7976;52.526;13.326;2023-07-29T06:05:10;100271.28;;;19.40;100.00
15750;BME280;7976;52.526;13.326;2023-07-29T06:07:37;100274.41;;;19.45;100.00
15750;BME280;7976;52.526;13.326;2023-07-29T06:10:04;100263.28;;;19.51;100.00
15750;BME280;7976;52.526;13.326;2023-07-29T06:12:31;100256.88;;;19.54;100.00
15750;BME280;7976;52.526;13.326;2023-07-29T06:14:59;100255.53;;;19.59;100.00
15750;BME280;7976;52.526;13.326;2023-07-29T06:17:26;100260.47;;;19.64;100.00
15750;BME280;7976;52.526;13.326;2023-07-29T06:19:53;100263.72;;;19.67;100.00
15750;BME280;7976;52.526;13.326;2023-07-29T06:22:20;100266.94;;;19.71;100.00
15750;BME280;7976;52.526;13.326;2023-07-29T06:24:46;100266.59;;;19.75;100.00
15750;BME280;7976;52.526;13.326;2023-07-29T06:27:13;100266.31;;;19.78;100.00
15750;BME280;7976;52.526;13.326;2023-07-29T06:29:40;100267.78;;;19.82;100.00
15750;BME280;7976;52.526;13.326;2023-07-29T06:32:08;100270.75;;;19.89;100.00
15750;BME280;7976;52.526;13.326;2023-07-29T06:34:35;100275.69;;;19.93;100.00
15750;BME280;7976;52.526;13.326;2023-07-29T06:37:02;100271.81;;;19.98;100.00
15750;BME280;7976;52.526;13.326;2023-07-29T06:39:29;100283.97;;;20.00;100.00
15750;BME280;7976;52.526;13.326;2023-07-29T06:41:55;100283.59;;;20.05;100.00
15750;BME280;7976;52.526;13.326;2023-07-29T06:44:22;100281.38;;;20.10;100.00
15750;BME280;7976;52.526;13.326;2023-07-29T06:46:49;100289.00;;;20.14;100.00
15750;BME280;7976;52.526;13.326;2023-07-29T06:49:17;100286.81;;;20.19;100.00
15750;BME280;7976;52.526;13.326;2023-07-29T06:51:44;100287.16;;;20.26;100.00
15750;BME280;7976;52.526;13.326;2023-07-29T06:54:11;100297.13;;;20.33;100.00
15750;BME280;7976;52.526;13.326;2023-07-29T06:56:38;100300.69;;;20.43;100.00
15750;BME280;7976;52.526;13.326;2023-07-29T06:59:05;100292.78;;;20.53;100.00
15750;BME280;7976;52.526;13.326;2023-07-29T07:01:31;100301.09;;;20.59;100.00
15750;BME280;7976;52.526;13.326;2023-07-29T07:03:58;100298.59;;;20.67;100.00
15750;BME280;7976;52.526;13.326;2023-07-29T07:06:26;100296.25;;;20.74;100.00
15750;BME280;7976;52.526;13.326;2023-07-29T07:08:53;100297.41;;;20.81;100.00
15750;BME280;7976;52.526;13.326;2023-07-29T07:11:20;100293.38;;;20.86;99.76
15750;BME280;7976;52.526;13.326;2023-07-29T07:13:47;100299.25;;;20.90;99.63
15750;BME280;7976;52.526;13.326;2023-07-29T07:16:13;100296.50;;;20.91;98.99
15750;BME280;7976;52.526;13.326;2023-07-29T07:18:41;100297.31;;;20.92;99.00
15750;BME280;7976;52.526;13.326;2023-07-29T07:21:08;100292.84;;;20.92;99.17
15750;BME280;7976;52.526;13.326;2023-07-29T07:23:39;100299.00;;;20.93;99.68
15750;BME280;7976;52.526;13.326;2023-07-29T07:26:06;100294.28;;;20.96;99.76
15750;BME280;7976;52.526;13.326;2023-07-29T07:28:32;100297.28;;;21.03;99.29
15750;BME280;7976;52.526;13.326;2023-07-29T07:30:59;100297.84;;;21.06;99.53
15750;BME280;7976;52.526;13.326;2023-07-29T07:33:26;100295.19;;;21.06;99.39
15750;BME280;7976;52.526;13.326;2023-07-29T07:35:53;100291.53;;;21.07;98.53
15750;BME280;7976;52.526;13.326;2023-07-29T07:38:20;100294.78;;;21.11;98.49
15750;BME280;7976;52.526;13.326;2023-07-29T07:40:54;100288.47;;;21.12;98.43
15750;BME280;7976;52.526;13.326;2023-07-29T07:43:21;100272.22;;;21.15;98.45
15750;BME280;7976;52.526;13.326;2023-07-29T07:45:48;100264.66;;;21.20;98.07
15750;BME280;7976;52.526;13.326;2023-07-29T07:48:15;100268.88;;;21.23;98.05
15750;BME280;7976;52.526;13.326;2023-07-29T07:50:42;100266.34;;;21.21;98.31
15750;BME280;7976;52.526;13.326;2023-07-29T07:53:09;100266.94;;;21.25;97.84
15750;BME280;7976;52.526;13.326;2023-07-29T07:55:36;100261.59;;;21.25;97.88
15750;BME280;7976;52.526;13.326;2023-07-29T07:58:04;100258.81;;;21.26;97.85
15750;BME280;7976;52.526;13.326;2023-07-29T08:00:31;100255.88;;;21.29;98.06
15750;BME280;7976;52.526;13.326;2023-07-29T08:02:58;100251.69;;;21.36;98.07
15750;BME280;7976;52.526;13.326;2023-07-29T08:05:25;100257.56;;;21.40;97.48
15750;BME280;7976;52.526;13.326;2023-07-29T08:07:52;100255.19;;;21.46;97.17
15750;BME280;7976;52.526;13.326;2023-07-29T08:10:19;100258.44;;;21.59;96.68
15750;BME280;7976;52.526;13.326;2023-07-29T08:12:45;100263.50;;;21.72;96.33
15750;BME280;7976;52.526;13.326;2023-07-29T08:15:14;100256.91;;;21.85;96.31
15750;BME280;7976;52.526;13.326;2023-07-29T08:17:40;100249.91;;;21.94;95.66
15750;BME280;7976;52.526;13.326;2023-07-29T08:20:08;100256.66;;;21.98;95.43
15750;BME280;7976;52.526;13.326;2023-07-29T08:22:35;100255.50;;;22.00;95.13
15750;BME280;7976;52.526;13.326;2023-07-29T08:25:03;100255.66;;;21.99;95.38
15750;BME280;7976;52.526;13.326;2023-07-29T08:27:29;100250.47;;;21.97;95.31
15750;BME280;7976;52.526;13.326;2023-07-29T08:29:56;100246.28;;;21.95;95.17
15750;BME280;7976;52.526;13.326;2023-07-29T08:32:24;100248.94;;;21.95;94.92
15750;BME280;7976;52.526;13.326;2023-07-29T08:34:51;100242.06;;;21.92;95.17
15750;BME280;7976;52.526;13.326;2023-07-29T08:37:18;100241.50;;;21.98;95.33
15750;BME280;7976;52.526;13.326;2023-07-29T08:39:45;100239.81;;;22.07;95.37
15750;BME280;7976;52.526;13.326;2023-07-29T08:42:12;100239.09;;;22.14;94.85
15750;BME280;7976;52.526;13.326;2023-07-29T08:44:42;100235.97;;;22.19;94.49
15750;BME280;7976;52.526;13.326;2023-07-29T08:47:10;100236.69;;;22.21;94.54
15750;BME280;7976;52.526;13.326;2023-07-29T08:49:41;100235.97;;;22.19;94.53
15750;BME280;7976;52.526;13.326;2023-07-29T08:52:09;100233.91;;;22.13;94.39
15750;BME280;7976;52.526;13.326;2023-07-29T08:54:37;100235.59;;;22.04;94.39
15750;BME280;7976;52.526;13.326;2023-07-29T08:57:06;100229.84;;;21.99;94.69
15750;BME280;7976;52.526;13.326;2023-07-29T08:59:33;100231.00;;;21.97;94.08
15750;BME280;7976;52.526;13.326;2023-07-29T09:02:00;100236.84;;;22.00;94.11
15750;BME280;7976;52.526;13.326;2023-07-29T09:04:27;100232.50;;;22.09;94.11
15750;BME280;7976;52.526;13.326;2023-07-29T09:06:57;100230.94;;;22.16;94.43
15750;BME280;7976;52.526;13.326;2023-07-29T09:09:25;100234.88;;;22.21;94.14
15750;BME280;7976;52.526;13.326;2023-07-29T09:11:53;100238.09;;;22.25;94.27
15750;BME280;7976;52.526;13.326;2023-07-29T09:14:20;100223.47;;;22.29;94.07
15750;BME280;7976;52.526;13.326;2023-07-29T09:16:47;100227.69;;;22.31;93.61
15750;BME280;7976;52.526;13.326;2023-07-29T09:19:14;100225.72;;;22.33;92.82
15750;BME280;7976;52.526;13.326;2023-07-29T09:21:42;100222.06;;;22.34;92.81
15750;BME280;7976;52.526;13.326;2023-07-29T09:24:10;100213.91;;;22.36;92.42
15750;BME280;7976;52.526;13.326;2023-07-29T09:26:40;100211.09;;;22.37;92.69
15750;BME280;7976;52.526;13.326;2023-07-29T09:29:15;100211.09;;;22.37;92.10
15750;BME280;7976;52.526;13.326;2023-07-29T09:31:42;100204.09;;;22.36;92.71
15750;BME280;7976;52.526;13.326;2023-07-29T09:34:08;100208.97;;;22.41;92.64
15750;BME280;7976;52.526;13.326;2023-07-29T09:36:35;100206.28;;;22.51;92.36
15750;BME280;7976;52.526;13.326;2023-07-29T09:39:02;100199.94;;;22.61;92.59
15750;BME280;7976;52.526;13.326;2023-07-29T09:41:30;100194.72;;;22.69;92.66
15750;BME280;7976;52.526;13.326;2023-07-29T09:44:00;100192.59;;;22.73;92.23
15750;BME280;7976;52.526;13.326;2023-07-29T09:46:33;100194.28;;;22.74;91.97
15750;BME280;7976;52.526;13.326;2023-07-29T09:49:02;100194.44;;;22.72;92.18
15750;BME280;7976;52.526;13.326;2023-07-29T09:51:29;100191.38;;;22.67;91.67
15750;BME280;7976;52.526;13.326;2023-07-29T09:53:56;100186.16;;;22.66;91.84
15750;BME280;7976;52.526;13.326;2023-07-29T09:56:26;100176.19;;;22.68;91.99
15750;BME280;7976;52.526;13.326;2023-07-29T09:58:56;100176.28;;;22.76;91.46
15750;BME280;7976;52.526;13.326;2023-07-29T10:01:23;100175.56;;;22.83;91.48
15750;BME280;7976;52.526;13.326;2023-07-29T10:03:51;100177.75;;;22.88;91.60
15750;BME280;7976;52.526;13.326;2023-07-29T10:06:18;100169.34;;;22.92;90.63
15750;BME280;7976;52.526;13.326;2023-07-29T10:08:49;100165.50;;;22.95;90.55
15750;BME280;7976;52.526;13.326;2023-07-29T10:11:17;100162.38;;;22.99;90.26
15750;BME280;7976;52.526;13.326;2023-07-29T10:13:46;100159.13;;;23.05;90.31
15750;BME280;7976;52.526;13.326;2023-07-29T10:16:15;100163.53;;;23.14;90.13
15750;BME280;7976;52.526;13.326;2023-07-29T10:18:42;100160.28;;;23.20;89.50
15750;BME280;7976;52.526;13.326;2023-07-29T10:21:12;100159.28;;;23.21;89.55
15750;BME280;7976;52.526;13.326;2023-07-29T10:23:47;100150.19;;;23.14;89.38
15750;BME280;7976;52.526;13.326;2023-07-29T10:26:19;100143.25;;;23.04;88.87
15750;BME280;7976;52.526;13.326;2023-07-29T10:28:51;100137.81;;;22.96;89.21
15750;BME280;7976;52.526;13.326;2023-07-29T10:31:22;100142.63;;;22.92;89.58
15750;BME280;7976;52.526;13.326;2023-07-29T10:33:50;100136.13;;;22.95;89.41
15750;BME280;7976;52.526;13.326;2023-07-29T10:36:17;100134.53;;;23.02;88.92
15750;BME280;7976;52.526;13.326;2023-07-29T10:38:45;100138.16;;;23.10;88.69
15750;BME280;7976;52.526;13.326;2023-07-29T10:41:12;100125.88;;;23.17;88.73
15750;BME280;7976;52.526;13.326;2023-07-29T10:43:38;100117.06;;;23.25;88.41
15750;BME280;7976;52.526;13.326;2023-07-29T10:46:16;100113.53;;;23.34;88.02
15750;BME280;7976;52.526;13.326;2023-07-29T10:48:53;100101.84;;;23.35;88.05
15750;BME280;7976;52.526;13.326;2023-07-29T10:51:29;100088.97;;;23.30;87.61
15750;BME280;7976;52.526;13.326;2023-07-29T10:54:00;100112.59;;;23.25;87.80
15750;BME280;7976;52.526;13.326;2023-07-29T10:56:30;100110.66;;;23.18;87.58
15750;BME280;7976;52.526;13.326;2023-07-29T10:59:31;100113.56;;;23.07;87.24
15750;BME280;7976;52.526;13.326;2023-07-29T11:02:00;100121.78;;;22.96;86.88
15750;BME280;7976;52.526;13.326;2023-07-29T11:04:30;100128.03;;;22.87;86.56
15750;BME280;7976;52.526;13.326;2023-07-29T11:07:26;100139.75;;;22.76;86.46
15750;BME280;7976;52.526;13.326;2023-07-29T11:10:02;100178.16;;;22.66;86.84
15750;BME280;7976;52.526;13.326;2023-07-29T11:12:44;100209.13;;;22.39;86.87
15750;BME280;7976;52.526;13.326;2023-07-29T11:15:21;100190.44;;;21.46;89.80
15750;BME280;7976;52.526;13.326;2023-07-29T11:17:51;100215.13;;;20.59;93.16
15750;BME280;7976;52.526;13.326;2023-07-29T11:20:22;100114.53;;;19.83;96.83
15750;BME280;7976;52.526;13.326;2023-07-29T11:22:49;100165.94;;;19.41;99.47
15750;BME280;7976;52.526;13.326;2023-07-29T11:25:18;100166.69;;;19.21;100.00
15750;BME280;7976;52.526;13.326;2023-07-29T11:27:45;100164.16;;;19.19;100.00
15750;BME280;7976;52.526;13.326;2023-07-29T11:30:15;100169.94;;;19.24;100.00
15750;BME280;7976;52.526;13.326;2023-07-29T11:32:44;100169.94;;;19.35;100.00
15750;BME280;7976;52.526;13.326;2023-07-29T11:35:13;100170.88;;;19.45;100.00
15750;BME280;7976;52.526;13.326;2023-07-29T11:37:45;100161.31;;;19.54;100.00
15750;BME280;7976;52.526;13.326;2023-07-29T11:40:15;100153.41;;;19.63;100.00
15750;BME280;7976;52.526;13.326;2023-07-29T11:42:43;100152.75;;;19.71;100.00
15750;BME280;7976;52.526;13.326;2023-07-29T11:45:11;100140.75;;;19.76;100.00
15750;BME280;7976;52.526;13.326;2023-07-29T11:47:38;100142.47;;;19.77;100.00
15750;BME280;7976;52.526;13.326;2023-07-29T11:50:10;100149.19;;;19.81;100.00
15750;BME280;7976;52.526;13.326;2023-07-29T11:52:43;100150.19;;;19.80;100.00
15750;BME280;7976;52.526;13.326;2023-07-29T11:55:11;100136.88;;;19.80;100.00
15750;BME280;7976;52.526;13.326;2023-07-29T11:57:39;100127.09;;;19.81;100.00
15750;BME280;7976;52.526;13.326;2023-07-29T12:00:10;100117.31;;;19.81;100.00
15750;BME280;7976;52.526;13.326;2023-07-29T12:02:39;100119.56;;;19.86;100.00
15750;BME280;7976;52.526;13.326;2023-07-29T12:05:09;100123.53;;;19.91;100.00
15750;BME280;7976;52.526;13.326;2023-07-29T12:07:38;100137.00;;;19.99;100.00
15750;BME280;7976;52.526;13.326;2023-07-29T12:10:09;100145.41;;;20.05;100.00
15750;BME280;7976;52.526;13.326;2023-07-29T12:12:44;100145.97;;;20.08;100.00
15750;BME280;7976;52.526;13.326;2023-07-29T12:15:12;100146.56;;;20.12;100.00
15750;BME280;7976;52.526;13.326;2023-07-29T12:17:40;100150.69;;;20.16;100.00
15750;BME280;7976;52.526;13.326;2023-07-29T12:20:09;100153.06;;;20.19;100.00
15750;BME280;7976;52.526;13.326;2023-07-29T12:22:37;100152.09;;;20.20;100.00
15750;BME280;7976;52.526;13.326;2023-07-29T12:25:05;100157.72;;;20.26;100.00
15750;BME280;7976;52.526;13.326;2023-07-29T12:27:34;100153.69;;;20.32;100.00
15750;BME280;7976;52.526;13.326;2023-07-29T12:30:02;100147.41;;;20.33;100.00
15750;BME280;7976;52.526;13.326;2023-07-29T12:32:29;100158.59;;;20.36;100.00
15750;BME280;7976;52.526;13.326;2023-07-29T12:34:56;100153.63;;;20.43;100.00
15750;BME280;7976;52.526;13.326;2023-07-29T12:37:31;100145.81;;;20.51;100.00
15750;BME280;7976;52.526;13.326;2023-07-29T12:39:58;100151.28;;;20.59;100.00
15750;BME280;7976;52.526;13.326;2023-07-29T12:42:25;100146.13;;;20.67;100.00
15750;BME280;7976;52.526;13.326;2023-07-29T12:44:53;100151.06;;;20.81;100.00
15750;BME280;7976;52.526;13.326;2023-07-29T12:47:20;100147.31;;;20.93;100.00
15750;BME280;7976;52.526;13.326;2023-07-29T12:49:47;100135.47;;;21.06;100.00